Time;durP1;ratioP1;P1;durP2;ratioP2;P2;SDS_P1;SDS_P2;PMS_P1;PMS_P2;Temp;Humidity;BMP_temperature;BMP_pressure;BME280_temperature;BME280_humidity;BME280_pressure;Samples;Min_cycle;Max_cycle;Signal;HPM_P1;HPM_P2
2022/01/10 00:00:15;;;;;;;46.65;6.75;;;;;;;;;;5072201;28;20087;-81
2022/01/10 00:02:42;;;;;;;38.15;6.95;;;;;;;;;;5084951;28;20055;-81
2022/01/10 00:05:09;;;;;;;23.92;5.60;;;;;;;;;;5056430;28;20131;-81
2022/01/10 00:07:35;;;;;;;40.33;6.60;;;;;;;;;;5072267;28;20162;-81
2022/01/10 00:10:02;;;;;;;24.70;5.57;;;;;;;;;;5054496;28;20131;-81
2022/01/10 00:12:28;;;;;;;24.75;5.32;;;;;;;;;;5067314;28;20086;-81
2022/01/10 00:14:54;;;;;;;26.40;6.18;;;;;;;;;;5065903;28;20487;-81
2022/01/10 00:17:21;;;;;;;32.90;5.80;;;;;;;;;;5064041;28;20044;-82
2022/01/10 00:19:47;;;;;;;46.63;7.65;;;;;;;;;;5086560;28;20071;-82
2022/01/10 00:22:13;;;;;;;34.33;7.28;;;;;;;;;;5066139;28;20040;-81
2022/01/10 00:24:39;;;;;;;33.92;7.22;;;;;;;;;;5053435;28;20059;-83
2022/01/10 00:27:05;;;;;;;30.17;6.50;;;;;;;;;;5073773;28;20433;-81
2022/01/10 00:29:31;;;;;;;37.03;6.72;;;;;;;;;;5089896;28;20036;-81
2022/01/10 00:31:58;;;;;;;46.10;7.70;;;;;;;;;;5056820;28;20429;-82
2022/01/10 00:34:24;;;;;;;30.50;6.85;;;;;;;;;;5086623;28;20035;-81
2022/01/10 00:36:50;;;;;;;29.83;6.15;;;;;;;;;;5070644;28;20044;-83
2022/01/10 00:39:16;;;;;;;51.10;7.30;;;;;;;;;;5073445;28;20373;-83
2022/01/10 00:41:44;;;;;;;33.92;7.15;;;;;;;;;;5063995;28;20047;-83
2022/01/10 00:44:10;;;;;;;54.10;8.48;;;;;;;;;;5063792;28;20143;-82
2022/01/10 00:46:37;;;;;;;29.20;6.90;;;;;;;;;;5087655;28;20032;-83
2022/01/10 00:49:03;;;;;;;37.53;7.22;;;;;;;;;;5071411;28;20040;-83
2022/01/10 00:51:29;;;;;;;39.15;7.07;;;;;;;;;;5071584;28;20067;-82
2022/01/10 00:53:55;;;;;;;43.08;7.93;;;;;;;;;;5071909;28;20051;-84
2022/01/10 00:56:21;;;;;;;31.13;7.57;;;;;;;;;;5087636;28;20043;-83
2022/01/10 00:58:48;;;;;;;41.58;7.88;;;;;;;;;;5090167;28;20057;-84
2022/01/10 01:01:14;;;;;;;34.00;7.72;;;;;;;;;;5086238;28;20140;-83
2022/01/10 01:03:41;;;;;;;41.80;7.50;;;;;;;;;;5099766;28;20039;-83
2022/01/10 01:06:07;;;;;;;27.70;5.95;;;;;;;;;;5072107;28;20530;-86
2022/01/10 01:08:35;;;;;;;28.33;6.82;;;;;;;;;;5067188;28;20036;-82
2022/01/10 01:13:55;;;;;;;25.38;8.00;;;;;;;;;;5095557;28;20049;-83
2022/01/10 01:16:43;;;;;;;34.33;8.10;;;;;;;;;;5071785;28;20051;-82
2022/01/10 01:24:31;;;;;;;34.83;7.85;;;;;;;;;;5086147;28;20048;-82
2022/01/10 01:26:57;;;;;;;36.28;7.78;;;;;;;;;;5055493;28;20359;-85
2022/01/10 01:29:24;;;;;;;33.13;7.80;;;;;;;;;;5086247;28;20356;-81
2022/01/10 01:31:51;;;;;;;32.95;7.10;;;;;;;;;;5086216;28;20043;-82
2022/01/10 01:34:17;;;;;;;27.60;7.53;;;;;;;;;;5072886;28;20088;-83
2022/01/10 01:36:51;;;;;;;33.88;8.68;;;;;;;;;;5055357;28;20081;-83
2022/01/10 01:39:21;;;;;;;39.55;7.88;;;;;;;;;;5111398;27;20133;-83
2022/01/10 01:41:54;;;;;;;34.38;8.30;;;;;;;;;;5069537;28;20040;-83
2022/01/10 01:44:20;;;;;;;39.40;8.85;;;;;;;;;;5087735;28;20349;-82
2022/01/10 01:46:46;;;;;;;40.83;7.70;;;;;;;;;;5087706;28;20040;-83
2022/01/10 01:49:13;;;;;;;34.70;7.88;;;;;;;;;;5086920;28;20474;-82
2022/01/10 01:51:39;;;;;;;30.85;8.40;;;;;;;;;;5087926;28;20040;-85
2022/01/10 01:54:06;;;;;;;42.25;11.10;;;;;;;;;;5075708;28;20122;-82
2022/01/10 01:56:32;;;;;;;25.23;8.20;;;;;;;;;;5073846;28;20065;-81
2022/01/10 01:58:58;;;;;;;41.30;9.32;;;;;;;;;;5075165;28;20530;-82
2022/01/10 02:01:25;;;;;;;33.00;9.05;;;;;;;;;;5091463;28;20047;-86
2022/01/10 02:03:51;;;;;;;37.03;9.15;;;;;;;;;;5123359;27;20391;-83
2022/01/10 02:06:17;;;;;;;41.35;8.57;;;;;;;;;;5091893;28;20102;-84
2022/01/10 02:08:44;;;;;;;30.63;8.02;;;;;;;;;;5091254;28;20419;-83
2022/01/10 02:11:12;;;;;;;30.33;8.68;;;;;;;;;;5093225;28;20032;-82
2022/01/10 02:13:38;;;;;;;46.08;9.10;;;;;;;;;;5093680;28;20044;-82
2022/01/10 02:16:06;;;;;;;20.50;7.53;;;;;;;;;;5078358;28;20085;-82
2022/01/10 02:18:33;;;;;;;22.88;6.70;;;;;;;;;;5072915;28;20040;-82
2022/01/10 02:21:01;;;;;;;33.65;9.02;;;;;;;;;;5075418;28;20036;-82
2022/01/10 02:23:28;;;;;;;27.38;8.23;;;;;;;;;;5090456;28;20078;-86
2022/01/10 02:25:55;;;;;;;35.75;10.93;;;;;;;;;;5060149;28;20047;-83
2022/01/10 02:28:21;;;;;;;22.42;8.27;;;;;;;;;;5090035;28;20075;-83
2022/01/10 02:30:52;;;;;;;23.15;8.95;;;;;;;;;;5091046;28;20089;-84
2022/01/10 02:33:18;;;;;;;23.50;7.85;;;;;;;;;;5094889;28;20054;-83
2022/01/10 02:35:54;;;;;;;22.45;7.38;;;;;;;;;;5074508;28;20569;-83
2022/01/10 02:38:20;;;;;;;43.05;9.68;;;;;;;;;;5105195;28;20044;-84
2022/01/10 02:40:48;;;;;;;36.17;9.32;;;;;;;;;;5073428;28;20037;-83
2022/01/10 02:43:14;;;;;;;32.03;8.07;;;;;;;;;;5077405;28;20093;-84
2022/01/10 02:45:40;;;;;;;26.52;8.70;;;;;;;;;;5075563;28;20143;-83
2022/01/10 02:48:06;;;;;;;45.55;9.65;;;;;;;;;;5055969;28;20050;-83
2022/01/10 02:50:33;;;;;;;28.67;8.40;;;;;;;;;;5059095;28;20062;-83
2022/01/10 02:52:59;;;;;;;33.85;9.77;;;;;;;;;;5077950;28;20071;-87
2022/01/10 02:55:25;;;;;;;36.58;8.95;;;;;;;;;;5094287;28;20043;-83
2022/01/10 02:57:51;;;;;;;24.05;7.45;;;;;;;;;;5091323;28;20127;-84
2022/01/10 03:00:18;;;;;;;31.13;7.72;;;;;;;;;;5074202;28;20105;-83
2022/01/10 03:02:48;;;;;;;29.70;8.73;;;;;;;;;;5075249;28;20078;-84
2022/01/10 03:05:15;;;;;;;34.00;8.63;;;;;;;;;;5092045;28;20040;-84
2022/01/10 03:07:41;;;;;;;29.20;8.60;;;;;;;;;;5078374;28;20081;-83
2022/01/10 03:10:07;;;;;;;38.15;9.10;;;;;;;;;;5074762;28;20075;-83
2022/01/10 03:12:34;;;;;;;31.35;9.65;;;;;;;;;;5053463;28;20037;-82
2022/01/10 03:15:00;;;;;;;26.90;8.30;;;;;;;;;;5069595;28;20156;-83
2022/01/10 03:17:27;;;;;;;29.00;9.13;;;;;;;;;;5088009;28;20040;-83
2022/01/10 03:19:54;;;;;;;35.85;9.70;;;;;;;;;;5073363;28;20055;-82
2022/01/10 03:22:20;;;;;;;25.83;8.93;;;;;;;;;;5072908;28;20379;-86
2022/01/10 03:24:46;;;;;;;23.02;8.40;;;;;;;;;;5114639;27;20036;-84
2022/01/10 03:27:12;;;;;;;33.22;10.13;;;;;;;;;;5089204;28;20044;-83
2022/01/10 03:29:38;;;;;;;38.20;9.57;;;;;;;;;;5071703;28;20119;-82
2022/01/10 03:32:06;;;;;;;20.65;8.77;;;;;;;;;;5089836;28;20062;-85
2022/01/10 03:34:32;;;;;;;30.52;9.45;;;;;;;;;;5054959;28;20125;-86
2022/01/10 03:36:58;;;;;;;45.40;11.82;;;;;;;;;;5089974;28;20035;-83
2022/01/10 03:39:25;;;;;;;32.03;10.20;;;;;;;;;;5089969;28;20048;-83
2022/01/10 03:41:51;;;;;;;36.97;11.82;;;;;;;;;;5090675;28;20062;-83
2022/01/10 03:44:17;;;;;;;44.00;11.45;;;;;;;;;;5084052;28;20379;-83
2022/01/10 03:46:43;;;;;;;42.00;10.73;;;;;;;;;;5070337;28;20040;-88
2022/01/10 03:49:09;;;;;;;36.13;12.35;;;;;;;;;;5051459;28;20102;-83
2022/01/10 03:51:35;;;;;;;37.92;11.75;;;;;;;;;;5052388;28;20127;-83
2022/01/10 03:54:01;;;;;;;43.72;12.25;;;;;;;;;;5072512;28;20044;-83
2022/01/10 03:56:28;;;;;;;28.73;9.95;;;;;;;;;;5055025;28;20119;-85
2022/01/10 03:58:55;;;;;;;39.50;11.15;;;;;;;;;;5090907;28;20036;-83
2022/01/10 04:01:21;;;;;;;34.08;10.93;;;;;;;;;;5067410;28;20524;-84
2022/01/10 04:03:47;;;;;;;39.90;10.52;;;;;;;;;;5066893;28;20043;-83
2022/01/10 04:06:14;;;;;;;40.35;12.00;;;;;;;;;;5070430;28;20086;-83
2022/01/10 04:08:40;;;;;;;35.25;10.73;;;;;;;;;;5073851;28;21330;-82
2022/01/10 04:11:06;;;;;;;40.50;11.10;;;;;;;;;;5088916;28;20095;-83
2022/01/10 04:13:33;;;;;;;30.95;10.60;;;;;;;;;;5073168;28;20048;-82
2022/01/10 04:15:59;;;;;;;33.75;10.80;;;;;;;;;;5072563;28;20198;-82
2022/01/10 04:18:25;;;;;;;34.50;11.88;;;;;;;;;;5053983;28;20061;-82
2022/01/10 04:20:51;;;;;;;46.28;10.95;;;;;;;;;;5070089;28;20087;-83
2022/01/10 04:23:17;;;;;;;30.17;11.20;;;;;;;;;;5071585;28;20055;-84
2022/01/10 04:25:44;;;;;;;32.20;10.70;;;;;;;;;;5071333;28;20098;-83
2022/01/10 04:28:10;;;;;;;33.15;11.77;;;;;;;;;;5073221;28;20081;-83
2022/01/10 04:30:36;;;;;;;32.92;10.45;;;;;;;;;;5086768;28;20033;-82
2022/01/10 04:33:02;;;;;;;29.83;9.88;;;;;;;;;;5056022;28;20075;-83
2022/01/10 04:35:29;;;;;;;39.63;14.27;;;;;;;;;;5081208;28;20123;-85
2022/01/10 04:37:55;;;;;;;39.42;12.73;;;;;;;;;;5088256;28;20044;-82
2022/01/10 04:40:23;;;;;;;33.83;11.88;;;;;;;;;;5072694;28;20032;-83
2022/01/10 04:42:49;;;;;;;57.70;13.60;;;;;;;;;;5073923;28;20060;-89
2022/01/10 04:45:16;;;;;;;51.42;14.68;;;;;;;;;;5070855;28;20115;-83
2022/01/10 04:47:42;;;;;;;47.83;13.15;;;;;;;;;;5088766;28;20123;-83
2022/01/10 04:52:34;;;;;;;38.78;12.80;;;;;;;;;;5089128;28;20131;-82
2022/01/10 04:55:01;;;;;;;44.08;12.60;;;;;;;;;;5085419;28;20089;-83
2022/01/10 04:57:27;;;;;;;47.08;13.52;;;;;;;;;;5087865;28;20101;-82
2022/01/10 04:59:54;;;;;;;47.92;14.85;;;;;;;;;;5073073;28;20127;-84
2022/01/10 05:02:20;;;;;;;51.42;15.20;;;;;;;;;;5088145;28;20070;-82
2022/01/10 05:04:46;;;;;;;45.83;15.20;;;;;;;;;;5072185;28;20135;-82
2022/01/10 05:07:12;;;;;;;39.53;14.35;;;;;;;;;;5070263;28;20397;-84
2022/01/10 05:09:38;;;;;;;52.33;15.07;;;;;;;;;;5071838;28;20096;-82
2022/01/10 05:12:05;;;;;;;44.13;16.70;;;;;;;;;;5071024;28;20048;-82
2022/01/10 05:14:32;;;;;;;39.67;13.55;;;;;;;;;;5070562;28;20635;-82
2022/01/10 05:16:58;;;;;;;46.20;14.88;;;;;;;;;;5054124;28;20069;-85
2022/01/10 05:19:24;;;;;;;34.92;14.20;;;;;;;;;;5087904;28;20036;-83
2022/01/10 05:21:51;;;;;;;37.17;14.57;;;;;;;;;;5052832;28;20135;-84
2022/01/10 05:24:17;;;;;;;47.92;15.35;;;;;;;;;;5053253;28;20040;-91
2022/01/10 05:26:43;;;;;;;41.03;15.88;;;;;;;;;;5084766;28;20055;-80
2022/01/10 05:29:09;;;;;;;42.72;15.00;;;;;;;;;;5071420;28;20047;-82
2022/01/10 05:31:35;;;;;;;48.08;15.70;;;;;;;;;;5069155;28;20186;-82
2022/01/10 05:34:01;;;;;;;48.10;16.25;;;;;;;;;;5084981;28;20039;-82
2022/01/10 05:36:27;;;;;;;36.05;14.23;;;;;;;;;;5070023;28;20071;-79
2022/01/10 05:38:53;;;;;;;42.05;16.88;;;;;;;;;;5052684;28;20119;-83
2022/01/10 05:41:22;;;;;;;51.97;17.35;;;;;;;;;;5071228;28;20535;-83
2022/01/10 05:43:48;;;;;;;43.72;17.42;;;;;;;;;;5095259;28;20048;-83
2022/01/10 05:46:16;;;;;;;45.03;16.98;;;;;;;;;;5054788;28;20046;-84
2022/01/10 05:48:47;;;;;;;46.67;19.13;;;;;;;;;;5084245;28;20052;-83
2022/01/10 05:51:13;;;;;;;48.10;19.02;;;;;;;;;;5070624;28;20111;-84
2022/01/10 05:53:39;;;;;;;56.35;20.08;;;;;;;;;;5068634;28;20502;-83
2022/01/10 05:56:06;;;;;;;60.63;19.95;;;;;;;;;;5085683;28;20112;-84
2022/01/10 05:58:32;;;;;;;57.88;19.33;;;;;;;;;;5085086;28;20040;-82
2022/01/10 06:00:58;;;;;;;49.83;19.70;;;;;;;;;;5063078;28;20503;-83
2022/01/10 06:03:24;;;;;;;45.65;18.60;;;;;;;;;;5086477;28;20123;-84
2022/01/10 06:05:50;;;;;;;39.67;17.67;;;;;;;;;;5095845;28;20044;-84
2022/01/10 06:08:16;;;;;;;58.80;21.48;;;;;;;;;;5086009;28;20084;-85
2022/01/10 06:10:43;;;;;;;51.00;20.33;;;;;;;;;;5070680;28;20049;-83
2022/01/10 06:13:09;;;;;;;50.00;19.73;;;;;;;;;;5065131;28;20044;-82
2022/01/10 06:15:36;;;;;;;48.33;21.00;;;;;;;;;;5068430;28;20094;-81
2022/01/10 06:18:02;;;;;;;52.33;21.50;;;;;;;;;;5066075;28;20542;-78
2022/01/10 06:20:28;;;;;;;42.70;20.10;;;;;;;;;;5082394;28;20044;-82
2022/01/10 06:22:54;;;;;;;48.88;22.08;;;;;;;;;;5049830;28;20531;-83
2022/01/10 06:25:22;;;;;;;55.83;24.42;;;;;;;;;;5065228;28;20048;-84
2022/01/10 06:27:48;;;;;;;42.60;21.85;;;;;;;;;;5080866;28;20047;-85
2022/01/10 06:30:14;;;;;;;52.88;23.00;;;;;;;;;;5061727;28;20422;-82
2022/01/10 06:32:40;;;;;;;54.67;24.10;;;;;;;;;;5060826;28;20106;-83
2022/01/10 06:35:07;;;;;;;59.17;24.10;;;;;;;;;;5105037;28;20105;-82
2022/01/10 06:37:33;;;;;;;55.85;25.10;;;;;;;;;;5055705;28;20040;-82
2022/01/10 06:39:59;;;;;;;60.20;24.40;;;;;;;;;;5042804;28;20399;-82
2022/01/10 06:42:25;;;;;;;59.45;24.08;;;;;;;;;;5071731;28;20048;-82
2022/01/10 06:44:51;;;;;;;55.50;24.40;;;;;;;;;;5053859;28;20051;-83
2022/01/10 06:47:17;;;;;;;56.47;24.38;;;;;;;;;;5052249;28;20051;-81
2022/01/10 06:49:44;;;;;;;67.00;25.83;;;;;;;;;;5099125;28;20128;-82
2022/01/10 06:52:10;;;;;;;65.85;26.67;;;;;;;;;;5083730;28;20125;-80
2022/01/10 06:54:36;;;;;;;65.15;26.42;;;;;;;;;;5068307;28;20039;-82
2022/01/10 06:57:02;;;;;;;60.05;24.58;;;;;;;;;;5056577;28;20044;-81
2022/01/10 06:59:29;;;;;;;47.70;23.42;;;;;;;;;;5061705;28;20052;-80
2022/01/10 07:01:56;;;;;;;52.92;25.25;;;;;;;;;;5078160;28;20056;-79
2022/01/10 07:04:23;;;;;;;64.22;25.20;;;;;;;;;;5086523;28;20098;-79
2022/01/10 07:06:49;;;;;;;46.10;24.48;;;;;;;;;;5091124;28;20501;-80
2022/01/10 07:09:15;;;;;;;51.80;23.27;;;;;;;;;;5080877;28;20445;-83
2022/01/10 07:11:41;;;;;;;49.83;22.80;;;;;;;;;;5104123;27;20506;-80
2022/01/10 07:14:08;;;;;;;43.05;22.95;;;;;;;;;;5070367;28;20044;-86
2022/01/10 07:16:34;;;;;;;68.15;26.85;;;;;;;;;;5072101;28;20056;-81
2022/01/10 07:19:01;;;;;;;55.25;27.38;;;;;;;;;;5089923;28;20044;-80
2022/01/10 07:21:27;;;;;;;54.63;25.40;;;;;;;;;;5064757;28;20048;-81
2022/01/10 07:23:53;;;;;;;48.22;25.27;;;;;;;;;;5083155;28;20044;-81
2022/01/10 07:26:20;;;;;;;61.45;26.83;;;;;;;;;;5085913;28;20046;-80
2022/01/10 07:28:46;;;;;;;45.97;24.88;;;;;;;;;;5092809;28;20040;-80
2022/01/10 07:31:12;;;;;;;50.95;24.83;;;;;;;;;;5055004;28;20079;-79
2022/01/10 07:33:38;;;;;;;61.03;26.38;;;;;;;;;;5077538;28;20076;-79
2022/01/10 07:36:04;;;;;;;56.08;26.33;;;;;;;;;;5073071;28;20048;-81
2022/01/10 07:38:35;;;;;;;54.67;28.05;;;;;;;;;;5073023;28;20499;-81
2022/01/10 07:41:02;;;;;;;76.68;29.92;;;;;;;;;;5088339;28;20040;-81
2022/01/10 07:43:28;;;;;;;66.38;32.47;;;;;;;;;;5071895;28;20036;-81
2022/01/10 07:45:54;;;;;;;63.50;29.40;;;;;;;;;;5090135;28;20127;-80
2022/01/10 07:48:21;;;;;;;80.80;35.30;;;;;;;;;;5087316;28;20036;-80
2022/01/10 07:50:47;;;;;;;86.40;34.70;;;;;;;;;;5057087;28;20040;-80
2022/01/10 07:53:13;;;;;;;64.07;30.77;;;;;;;;;;5074276;28;20052;-81
2022/01/10 07:55:39;;;;;;;62.50;30.08;;;;;;;;;;5055380;28;20429;-81
2022/01/10 07:58:05;;;;;;;66.20;28.98;;;;;;;;;;5084478;28;20045;-79
2022/01/10 08:00:31;;;;;;;67.30;31.55;;;;;;;;;;5059303;28;20057;-80
2022/01/10 08:02:57;;;;;;;59.88;29.35;;;;;;;;;;5083058;28;20428;-79
2022/01/10 08:05:23;;;;;;;59.63;28.17;;;;;;;;;;5072340;28;20067;-80
2022/01/10 08:07:49;;;;;;;55.22;29.23;;;;;;;;;;5081245;28;20077;-79
2022/01/10 08:10:16;;;;;;;61.95;28.20;;;;;;;;;;5070143;28;20040;-86
2022/01/10 08:12:42;;;;;;;64.53;31.23;;;;;;;;;;5054232;28;20040;-80
2022/01/10 08:15:08;;;;;;;59.90;30.30;;;;;;;;;;5075692;28;20499;-81
2022/01/10 08:17:35;;;;;;;64.30;29.38;;;;;;;;;;5095194;28;20040;-79
2022/01/10 08:20:01;;;;;;;68.90;32.70;;;;;;;;;;5082974;28;20109;-80
2022/01/10 08:22:27;;;;;;;72.85;34.67;;;;;;;;;;5059177;28;20128;-79
2022/01/10 08:24:54;;;;;;;75.95;35.35;;;;;;;;;;5074267;28;20131;-83
2022/01/10 08:27:20;;;;;;;85.22;36.45;;;;;;;;;;5061915;28;20052;-79
2022/01/10 08:29:47;;;;;;;88.88;36.35;;;;;;;;;;5038471;28;20036;-80
2022/01/10 08:32:14;;;;;;;76.20;34.40;;;;;;;;;;5065671;28;20051;-80
2022/01/10 08:34:40;;;;;;;84.93;37.25;;;;;;;;;;5085282;28;20089;-80
2022/01/10 08:37:06;;;;;;;76.70;35.42;;;;;;;;;;5092138;28;20033;-81
2022/01/10 08:39:33;;;;;;;87.72;39.67;;;;;;;;;;5069727;28;20067;-80
2022/01/10 08:41:59;;;;;;;72.60;33.75;;;;;;;;;;5107163;27;20044;-80
2022/01/10 08:44:25;;;;;;;82.32;35.80;;;;;;;;;;5092034;28;20488;-79
2022/01/10 08:46:51;;;;;;;73.75;35.83;;;;;;;;;;5084177;28;20040;-82
2022/01/10 08:49:17;;;;;;;76.57;37.75;;;;;;;;;;5069706;28;20047;-82
2022/01/10 08:51:45;;;;;;;68.63;32.58;;;;;;;;;;5093313;28;20047;-80
2022/01/10 08:54:11;;;;;;;68.30;33.95;;;;;;;;;;5070300;28;20047;-82
2022/01/10 08:56:37;;;;;;;70.65;37.38;;;;;;;;;;5053903;28;20047;-80
2022/01/10 08:59:04;;;;;;;85.75;40.60;;;;;;;;;;5080781;28;20047;-77
2022/01/10 09:01:31;;;;;;;72.60;37.72;;;;;;;;;;5051402;28;20506;-76
2022/01/10 09:03:58;;;;;;;77.05;40.30;;;;;;;;;;5055983;28;20502;-80
2022/01/10 09:06:24;;;;;;;90.28;42.85;;;;;;;;;;5063884;28;20127;-79
2022/01/10 09:08:50;;;;;;;106.22;44.92;;;;;;;;;;5071474;28;20051;-79
2022/01/10 09:11:17;;;;;;;78.32;42.15;;;;;;;;;;5079187;28;20044;-79
2022/01/10 09:13:43;;;;;;;114.35;48.65;;;;;;;;;;5098991;28;20102;-79
2022/01/10 09:16:11;;;;;;;102.90;49.20;;;;;;;;;;5080211;28;20048;-79
2022/01/10 09:18:37;;;;;;;106.05;49.78;;;;;;;;;;5061256;28;20128;-78
2022/01/10 09:21:03;;;;;;;83.05;43.70;;;;;;;;;;5067782;28;20049;-78
2022/01/10 09:23:30;;;;;;;74.93;41.30;;;;;;;;;;5104650;27;20040;-79
2022/01/10 09:25:56;;;;;;;68.70;36.95;;;;;;;;;;5074808;28;20054;-81
2022/01/10 09:28:22;;;;;;;54.05;30.52;;;;;;;;;;5085082;28;20113;-87
2022/01/10 09:30:48;;;;;;;60.05;30.52;;;;;;;;;;5070332;28;20049;-80
2022/01/10 09:33:14;;;;;;;49.13;27.25;;;;;;;;;;5084727;28;20051;-79
2022/01/10 09:35:42;;;;;;;52.05;30.92;;;;;;;;;;5091195;28;20048;-79
2022/01/10 09:38:09;;;;;;;49.67;27.88;;;;;;;;;;5067028;28;20043;-80
2022/01/10 09:40:35;;;;;;;56.63;29.98;;;;;;;;;;5057674;28;20052;-79
2022/01/10 09:43:02;;;;;;;56.72;30.23;;;;;;;;;;5099734;28;20054;-79
2022/01/10 09:45:28;;;;;;;60.03;29.15;;;;;;;;;;5088017;28;20074;-78
2022/01/10 09:47:54;;;;;;;38.78;24.50;;;;;;;;;;5055132;28;20072;-76
2022/01/10 09:50:20;;;;;;;49.92;32.38;;;;;;;;;;5087477;28;20472;-76
2022/01/10 09:52:48;;;;;;;56.95;32.83;;;;;;;;;;5053081;28;20773;-78
2022/01/10 09:55:14;;;;;;;56.20;32.10;;;;;;;;;;5086070;28;20419;-75
2022/01/10 09:57:41;;;;;;;43.15;30.00;;;;;;;;;;5086778;28;20449;-75
2022/01/10 10:00:06;;;;;;;;;;;;;;;;;;5089172;28;20136;-76
2022/01/10 10:02:34;;;;;;;34.53;21.13;;;;;;;;;;5070552;28;20386;-75
2022/01/10 10:05:08;;;;;;;30.25;19.58;;;;;;;;;;5086070;28;20079;-79
2022/01/10 10:07:36;;;;;;;33.92;22.38;;;;;;;;;;5067890;28;20454;-76
2022/01/10 10:10:07;;;;;;;30.67;19.88;;;;;;;;;;5085923;28;20056;-75
2022/01/10 10:12:33;;;;;;;35.75;18.13;;;;;;;;;;5087421;28;20499;-75
2022/01/10 10:15:00;;;;;;;37.70;23.50;;;;;;;;;;5053061;28;20418;-76
2022/01/10 10:17:28;;;;;;;33.10;20.23;;;;;;;;;;5081541;28;20036;-74
2022/01/10 10:19:54;;;;;;;36.08;19.33;;;;;;;;;;5086033;28;20352;-74
2022/01/10 10:22:20;;;;;;;33.03;19.98;;;;;;;;;;5074617;28;20120;-75
2022/01/10 10:24:47;;;;;;;36.25;20.23;;;;;;;;;;5057153;28;20048;-74
2022/01/10 10:27:15;;;;;;;41.47;22.42;;;;;;;;;;5071997;28;20051;-75
2022/01/10 10:29:41;;;;;;;47.78;23.98;;;;;;;;;;5107839;28;20048;-74
2022/01/10 10:32:09;;;;;;;42.47;23.30;;;;;;;;;;5071664;28;20430;-74
2022/01/10 10:34:35;;;;;;;37.53;23.38;;;;;;;;;;5056287;28;20058;-77
2022/01/10 10:37:08;;;;;;;40.40;24.30;;;;;;;;;;5102407;28;20040;-75
2022/01/10 10:39:36;;;;;;;49.15;26.13;;;;;;;;;;5071659;28;20039;-74
2022/01/10 10:42:03;;;;;;;34.15;22.70;;;;;;;;;;5087805;28;20053;-75
2022/01/10 10:44:30;;;;;;;42.35;24.20;;;;;;;;;;5068339;28;20044;-73
2022/01/10 10:46:56;;;;;;;38.20;24.95;;;;;;;;;;5084794;28;20555;-73
2022/01/10 10:49:30;;;;;;;45.47;26.88;;;;;;;;;;5063858;28;20064;-74
2022/01/10 10:51:56;;;;;;;50.80;27.10;;;;;;;;;;5069156;28;20048;-74
2022/01/10 10:54:23;;;;;;;43.83;26.38;;;;;;;;;;5069489;28;20495;-74
2022/01/10 10:56:50;;;;;;;44.80;27.38;;;;;;;;;;5070896;28;20384;-74
2022/01/10 10:59:16;;;;;;;42.08;25.58;;;;;;;;;;5066869;28;20116;-75
2022/01/10 11:01:43;;;;;;;46.33;26.73;;;;;;;;;;5068323;28;20048;-75
2022/01/10 11:04:10;;;;;;;51.67;26.60;;;;;;;;;;5071843;28;20050;-74
2022/01/10 11:06:37;;;;;;;50.97;27.30;;;;;;;;;;5087940;28;20040;-76
2022/01/10 11:09:12;;;;;;;49.55;27.42;;;;;;;;;;5069253;28;20078;-75
2022/01/10 11:11:39;;;;;;;54.60;27.80;;;;;;;;;;5073432;28;20118;-77
2022/01/10 11:14:06;;;;;;;47.53;25.77;;;;;;;;;;5069355;28;20063;-77
2022/01/10 11:16:35;;;;;;;39.58;24.73;;;;;;;;;;5057134;28;20132;-77
2022/01/10 11:19:01;;;;;;;39.88;24.27;;;;;;;;;;5070549;28;20421;-84
2022/01/10 11:21:28;;;;;;;41.22;25.88;;;;;;;;;;5066482;28;20044;-77
2022/01/10 11:23:55;;;;;;;48.17;27.38;;;;;;;;;;5085485;28;20081;-80
2022/01/10 11:26:21;;;;;;;43.13;24.60;;;;;;;;;;5070327;28;20044;-79
2022/01/10 11:28:48;;;;;;;42.13;25.40;;;;;;;;;;5071422;28;20355;-78
2022/01/10 11:31:18;;;;;;;53.60;27.20;;;;;;;;;;5070368;28;20036;-76
2022/01/10 11:33:44;;;;;;;45.13;25.15;;;;;;;;;;5086209;28;20122;-77
2022/01/10 11:36:10;;;;;;;38.40;24.25;;;;;;;;;;5073700;28;20062;-77
2022/01/10 11:38:49;;;;;;;44.42;24.08;;;;;;;;;;5054904;28;20036;-77
2022/01/10 11:41:24;;;;;;;40.83;26.25;;;;;;;;;;5072595;28;20517;-77
2022/01/10 11:43:52;;;;;;;47.55;26.10;;;;;;;;;;5086597;28;20036;-77
2022/01/10 11:46:25;;;;;;;49.10;25.02;;;;;;;;;;5089523;28;20267;-77
2022/01/10 11:48:53;;;;;;;35.92;23.15;;;;;;;;;;5072539;28;20086;-76
2022/01/10 11:51:24;;;;;;;42.60;26.70;;;;;;;;;;5074509;28;20359;-78
2022/01/10 11:53:51;;;;;;;45.92;26.83;;;;;;;;;;5087231;28;20135;-78
2022/01/10 11:56:25;;;;;;;40.28;24.55;;;;;;;;;;5089696;28;20096;-74
2022/01/10 11:59:10;;;;;;;43.20;25.27;;;;;;;;;;5090180;28;20475;-77
2022/01/10 12:01:38;;;;;;;42.50;24.95;;;;;;;;;;5072752;28;20268;-76
2022/01/10 12:04:04;;;;;;;41.05;25.48;;;;;;;;;;5089116;28;20040;-77
2022/01/10 12:06:31;;;;;;;43.72;23.95;;;;;;;;;;5089507;28;20105;-77
2022/01/10 12:08:58;;;;;;;46.67;26.70;;;;;;;;;;5090498;28;20387;-84
2022/01/10 12:11:25;;;;;;;47.20;26.75;;;;;;;;;;5088715;28;20040;-78
2022/01/10 12:13:52;;;;;;;50.28;27.05;;;;;;;;;;5086901;28;20368;-78
2022/01/10 12:16:18;;;;;;;50.72;24.90;;;;;;;;;;5070182;28;20046;-79
2022/01/10 12:18:45;;;;;;;47.35;26.40;;;;;;;;;;5054766;28;20161;-76
2022/01/10 12:21:11;;;;;;;50.47;24.38;;;;;;;;;;5052910;28;20155;-77
2022/01/10 12:23:37;;;;;;;41.65;22.48;;;;;;;;;;5055529;28;20126;-79
2022/01/10 12:26:03;;;;;;;43.65;21.65;;;;;;;;;;5085990;28;20048;-78
2022/01/10 12:28:29;;;;;;;38.00;20.92;;;;;;;;;;5086016;28;20097;-80
2022/01/10 12:30:57;;;;;;;40.70;22.60;;;;;;;;;;5085803;28;20042;-81
2022/01/10 12:33:23;;;;;;;32.63;21.85;;;;;;;;;;5082352;28;20647;-80
2022/01/10 12:35:49;;;;;;;44.35;23.95;;;;;;;;;;5100201;28;20415;-81
2022/01/10 12:38:20;;;;;;;40.42;23.27;;;;;;;;;;5071477;28;20544;-81
2022/01/10 12:40:46;;;;;;;44.05;23.45;;;;;;;;;;5099774;28;20048;-80
2022/01/10 12:43:12;;;;;;;35.80;22.50;;;;;;;;;;5068500;28;20074;-80
2022/01/10 12:45:38;;;;;;;47.00;25.15;;;;;;;;;;5070659;28;20079;-79
2022/01/10 12:48:05;;;;;;;46.85;24.17;;;;;;;;;;5101107;28;20125;-81
2022/01/10 12:50:32;;;;;;;35.78;22.70;;;;;;;;;;5070978;28;20066;-82
2022/01/10 12:52:58;;;;;;;38.58;21.05;;;;;;;;;;5067169;28;20056;-81
2022/01/10 12:55:24;;;;;;;39.28;22.23;;;;;;;;;;5079029;28;20538;-82
2022/01/10 12:57:51;;;;;;;41.92;21.77;;;;;;;;;;5055191;28;20040;-81
2022/01/10 13:00:17;;;;;;;38.85;23.00;;;;;;;;;;5069957;28;20368;-82
2022/01/10 13:02:44;;;;;;;47.38;23.63;;;;;;;;;;5068799;28;20094;-81
2022/01/10 13:05:14;;;;;;;39.30;23.88;;;;;;;;;;5087418;28;20043;-81
2022/01/10 13:07:41;;;;;;;39.30;23.67;;;;;;;;;;5089300;28;20070;-82
2022/01/10 13:10:11;;;;;;;41.78;24.42;;;;;;;;;;5071843;28;20048;-81
2022/01/10 13:12:37;;;;;;;46.47;24.55;;;;;;;;;;5087150;28;20062;-80
2022/01/10 13:15:10;;;;;;;41.95;25.88;;;;;;;;;;5071708;28;20044;-80
2022/01/10 13:17:37;;;;;;;36.72;25.10;;;;;;;;;;5100969;28;20119;-80
2022/01/10 13:20:08;;;;;;;37.95;25.45;;;;;;;;;;5086378;28;20101;-80
2022/01/10 13:22:35;;;;;;;37.40;25.05;;;;;;;;;;5071653;28;20051;-81
2022/01/10 13:25:02;;;;;;;46.17;25.40;;;;;;;;;;5105019;27;20044;-80
2022/01/10 13:27:32;;;;;;;46.40;26.17;;;;;;;;;;5071239;28;20040;-80
2022/01/10 13:29:59;;;;;;;58.65;27.65;;;;;;;;;;5068323;28;20051;-80
2022/01/10 13:32:25;;;;;;;44.17;25.50;;;;;;;;;;5088274;28;20044;-79
2022/01/10 13:34:53;;;;;;;47.22;25.75;;;;;;;;;;5089393;28;20058;-80
2022/01/10 13:37:38;;;;;;;46.53;25.95;;;;;;;;;;5069199;28;20043;-81
2022/01/10 13:40:07;;;;;;;50.67;24.80;;;;;;;;;;5086977;28;20252;-81
2022/01/10 13:42:38;;;;;;;46.92;26.52;;;;;;;;;;5088695;28;20400;-80
2022/01/10 13:45:04;;;;;;;36.83;23.75;;;;;;;;;;5071009;28;20043;-80
2022/01/10 13:47:46;;;;;;;48.58;26.90;;;;;;;;;;5071215;28;20044;-79
2022/01/10 13:50:16;;;;;;;39.60;27.10;;;;;;;;;;5102933;28;20048;-81
2022/01/10 13:52:58;;;;;;;47.20;27.80;;;;;;;;;;5070162;28;20560;-80
2022/01/10 13:55:24;;;;;;;48.83;29.30;;;;;;;;;;5072307;28;20043;-79
2022/01/10 13:57:50;;;;;;;46.50;28.48;;;;;;;;;;5071521;28;20040;-79
2022/01/10 14:00:18;;;;;;;45.47;27.38;;;;;;;;;;5055097;28;20043;-81
2022/01/10 14:02:45;;;;;;;49.97;27.67;;;;;;;;;;5071038;28;20083;-80
2022/01/10 14:05:28;;;;;;;52.40;28.25;;;;;;;;;;5087573;28;20047;-81
2022/01/10 14:07:55;;;;;;;45.10;28.23;;;;;;;;;;5102523;28;20063;-82
2022/01/10 14:10:22;;;;;;;47.53;28.17;;;;;;;;;;5070906;28;20043;-80
2022/01/10 14:12:48;;;;;;;49.25;30.70;;;;;;;;;;5087758;28;20054;-81
2022/01/10 14:15:21;;;;;;;47.33;28.08;;;;;;;;;;5068978;28;20241;-77
2022/01/10 14:17:47;;;;;;;48.85;29.92;;;;;;;;;;5087752;28;20043;-83
2022/01/10 14:20:13;;;;;;;46.50;29.38;;;;;;;;;;5084681;28;20122;-75
2022/01/10 14:22:40;;;;;;;46.60;29.63;;;;;;;;;;5070481;28;20048;-80
2022/01/10 14:25:07;;;;;;;46.97;29.70;;;;;;;;;;5082002;28;20044;-81
2022/01/10 14:27:34;;;;;;;49.83;29.27;;;;;;;;;;5071375;28;20055;-89
2022/01/10 14:30:00;;;;;;;47.85;30.83;;;;;;;;;;5054978;28;20102;-85